Time;durP1;ratioP1;P1;durP2;ratioP2;P2;SDS_P1;SDS_P2;PMS_P1;PMS_P2;Temp;Humidity;BMP_temperature;BMP_pressure;BME280_temperature;BME280_humidity;BME280_pressure;Samples;Min_cycle;Max_cycle;Signal;HPM_P1;HPM_P2
2022/07/27 00:02:39;;;;;;;2.42;1.12;;;30.50;61.10;;;;;;10757998;33;20037;-69
2022/07/27 00:08:41;;;;;;;1.85;1.15;;;30.40;61.10;;;;;;10881174;32;20026;-68
2022/07/27 00:14:43;;;;;;;3.03;1.67;;;30.40;61.10;;;;;;10908758;32;20045;-70
2022/07/27 00:20:45;;;;;;;4.20;1.40;;;30.40;61.20;;;;;;10908554;32;20328;-71
2022/07/27 00:26:47;;;;;;;1.15;0.80;;;30.40;60.90;;;;;;10907597;32;20336;-70
2022/07/27 00:32:49;;;;;;;1.80;1.05;;;30.40;60.20;;;;;;10907935;32;20031;-71
2022/07/27 00:38:51;;;;;;;3.30;1.20;;;30.40;59.80;;;;;;10904491;32;20327;-69
2022/07/27 00:44:54;;;;;;;2.17;0.90;;;30.30;59.80;;;;;;10907736;32;20050;-71
2022/07/27 00:50:56;;;;;;;2.20;1.08;;;30.30;60.10;;;;;;10907295;32;20054;-70
2022/07/27 00:56:59;;;;;;;7.20;1.20;;;30.20;60.30;;;;;;10906433;32;20078;-68
2022/07/27 01:03:02;;;;;;;3.35;1.62;;;30.20;60.40;;;;;;10904170;32;20027;-70
2022/07/27 01:15:24;;;;;;;3.00;1.70;;;30.00;61.10;;;;;;10901839;32;20035;-71
2022/07/27 01:21:27;;;;;;;1.70;1.30;;;30.00;61.20;;;;;;10905994;32;20426;-69
2022/07/27 01:27:29;;;;;;;3.03;1.17;;;30.00;61.20;;;;;;10906172;32;20035;-71
2022/07/27 01:33:31;;;;;;;2.28;1.23;;;30.00;61.60;;;;;;10905816;32;20097;-68
2022/07/27 01:39:33;;;;;;;4.75;1.65;;;30.10;61.50;;;;;;10905716;32;20024;-70
2022/07/27 01:45:35;;;;;;;1.73;1.25;;;29.90;61.40;;;;;;10905619;32;20023;-70
2022/07/27 01:51:37;;;;;;;1.98;1.35;;;29.80;61.90;;;;;;10905170;32;20054;-71
2022/07/27 01:57:40;;;;;;;2.58;1.30;;;29.80;61.90;;;;;;10905261;32;20070;-71
2022/07/27 02:03:42;;;;;;;1.55;0.98;;;29.80;61.50;;;;;;10904933;32;20043;-71
2022/07/27 02:09:44;;;;;;;2.28;1.23;;;29.80;60.90;;;;;;10904776;32;20007;-71
2022/07/27 02:15:47;;;;;;;1.67;1.05;;;29.80;60.70;;;;;;10900435;32;20076;-70
2022/07/27 02:21:49;;;;;;;2.83;1.05;;;29.80;60.00;;;;;;10900366;32;20046;-71
2022/07/27 02:27:51;;;;;;;2.78;1.50;;;29.70;60.00;;;;;;10902654;32;20054;-69
2022/07/27 02:33:53;;;;;;;3.35;1.08;;;29.70;60.50;;;;;;10890985;32;20027;-71
2022/07/27 02:39:55;;;;;;;2.87;1.30;;;29.80;60.40;;;;;;10904176;32;20026;-68
2022/07/27 02:45:57;;;;;;;3.72;1.40;;;29.60;60.50;;;;;;10899839;32;20054;-70
2022/07/27 02:51:59;;;;;;;2.85;1.83;;;29.60;61.10;;;;;;10903963;32;20058;-71
2022/07/27 02:58:01;;;;;;;1.50;0.88;;;29.60;61.10;;;;;;10903941;32;20020;-69
2022/07/27 03:04:03;;;;;;;1.87;1.30;;;29.70;60.80;;;;;;10903821;32;20020;-71
2022/07/27 03:10:06;;;;;;;1.17;0.55;;;29.80;60.80;;;;;;10903747;32;20046;-71
2022/07/27 03:16:09;;;;;;;1.65;1.00;;;29.70;60.80;;;;;;10901572;32;20396;-70
2022/07/27 03:22:11;;;;;;;2.00;1.10;;;29.60;60.30;;;;;;10909920;32;20032;-69
2022/07/27 03:28:13;;;;;;;2.08;1.48;;;29.40;59.60;;;;;;10908364;32;20028;-68
2022/07/27 03:34:16;;;;;;;11.85;3.28;;;29.10;56.80;;;;;;10909689;32;20026;-68
2022/07/27 03:40:39;;;;;;;4.22;2.58;;;28.70;54.20;;;;;;10909990;32;20407;-68
2022/07/27 03:46:41;;;;;;;5.05;2.28;;;27.90;55.60;;;;;;10905510;32;20019;-67
2022/07/27 03:52:44;;;;;;;5.15;2.70;;;27.50;57.30;;;;;;10891971;32;20039;-68
2022/07/27 03:58:46;;;;;;;9.55;1.80;;;27.40;57.50;;;;;;10906069;32;20328;-67
2022/07/27 04:04:48;;;;;;;2.47;1.40;;;27.50;57.70;;;;;;10905752;32;20050;-70
2022/07/27 04:10:50;;;;;;;4.37;2.00;;;27.80;57.70;;;;;;10904563;32;20031;-70
2022/07/27 04:16:53;;;;;;;3.45;1.90;;;28.00;57.80;;;;;;10904213;32;20488;-70
2022/07/27 04:22:55;;;;;;;2.67;1.10;;;28.30;57.90;;;;;;10904291;32;20320;-70
2022/07/27 04:28:57;;;;;;;1.08;0.62;;;28.50;57.90;;;;;;10909831;27;20192;-69
2022/07/27 04:34:59;;;;;;;2.30;1.37;;;28.60;58.20;;;;;;10903609;32;20050;-70
2022/07/27 04:41:01;;;;;;;1.30;0.62;;;28.60;58.70;;;;;;10891699;32;20045;-68
2022/07/27 04:47:03;;;;;;;0.93;0.70;;;28.60;58.60;;;;;;10904437;32;20100;-70
2022/07/27 04:53:06;;;;;;;1.37;0.75;;;28.40;58.50;;;;;;10903045;32;20022;-69
2022/07/27 04:59:08;;;;;;;3.15;1.08;;;28.30;58.40;;;;;;10903433;32;20024;-68
2022/07/27 05:05:29;;;;;;;2.47;0.80;;;28.20;57.40;;;;;;10906578;32;20015;-68
2022/07/27 05:11:31;;;;;;;1.55;1.10;;;27.90;58.60;;;;;;10902586;32;20388;-69
2022/07/27 05:17:34;;;;;;;3.83;0.82;;;28.00;59.10;;;;;;10906397;32;20289;-68
2022/07/27 05:23:36;;;;;;;1.42;1.12;;;27.80;59.80;;;;;;10906260;32;20053;-67
2022/07/27 05:30:20;;;;;;;4.53;1.42;;;27.30;63.40;;;;;;10906125;32;20325;-69
2022/07/27 05:36:24;;;;;;;1.67;0.70;;;27.20;64.30;;;;;;10905732;32;20067;-69
2022/07/27 05:42:26;;;;;;;3.28;1.80;;;27.20;64.00;;;;;;10901168;32;20023;-68
2022/07/27 05:48:28;;;;;;;2.22;1.30;;;26.90;63.30;;;;;;10902005;32;20027;-67
2022/07/27 05:54:30;;;;;;;3.12;2.22;;;26.80;63.00;;;;;;10891689;32;20019;-68
2022/07/27 06:00:32;;;;;;;1.90;1.35;;;26.70;62.70;;;;;;10864109;32;20019;-68
2022/07/27 06:12:57;;;;;;;5.62;1.55;;;27.10;62.90;;;;;;10868743;32;20498;-68
2022/07/27 06:18:59;;;;;;;2.35;1.55;;;27.30;63.00;;;;;;10874822;32;20058;-67
2022/07/27 06:25:01;;;;;;;6.28;2.00;;;27.40;62.90;;;;;;10863519;32;20324;-68
2022/07/27 06:31:03;;;;;;;4.45;1.50;;;27.50;62.80;;;;;;10862120;32;20047;-68
2022/07/27 06:37:05;;;;;;;4.97;2.00;;;27.60;62.50;;;;;;10862944;32;20028;-68
2022/07/27 06:43:07;;;;;;;4.05;2.30;;;27.80;62.30;;;;;;10866788;32;20049;-68
2022/07/27 06:49:09;;;;;;;2.28;1.50;;;27.80;62.50;;;;;;10862835;32;20019;-70
2022/07/27 06:55:12;;;;;;;2.87;2.08;;;27.90;62.10;;;;;;10871308;32;20020;-70
2022/07/27 07:01:14;;;;;;;3.53;1.92;;;28.00;61.70;;;;;;10869944;32;20051;-69
2022/07/27 07:07:17;;;;;;;3.37;1.73;;;28.30;61.30;;;;;;10870923;32;20019;-70
2022/07/27 07:13:19;;;;;;;2.90;2.15;;;28.30;61.00;;;;;;10872020;32;20031;-70
2022/07/27 07:19:28;;;;;;;3.30;1.17;;;28.50;60.70;;;;;;10868354;32;20020;-69
2022/07/27 07:25:31;;;;;;;2.03;1.30;;;28.70;60.40;;;;;;10869008;32;20387;-69
2022/07/27 07:31:49;;;;;;;3.67;1.83;;;28.80;59.90;;;;;;10871359;32;20075;-70
2022/07/27 07:37:52;;;;;;;2.47;1.50;;;29.00;59.40;;;;;;10867666;32;20054;-69
2022/07/27 07:44:20;;;;;;;3.92;1.58;;;29.10;59.10;;;;;;10884643;32;20085;-69
2022/07/27 07:50:22;;;;;;;;;;;29.00;58.70;;;;;;10906624;32;20053;-70
2022/07/27 07:56:24;;;;;;;3.35;1.77;;;29.20;58.60;;;;;;10905477;32;19981;-70
2022/07/27 08:02:28;;;;;;;5.68;2.53;;;29.30;58.40;;;;;;10905951;32;20395;-69
2022/07/27 08:08:30;;;;;;;3.35;1.55;;;29.20;58.40;;;;;;10909026;32;20016;-70
2022/07/27 08:14:33;;;;;;;2.28;1.10;;;29.10;58.40;;;;;;10894005;32;20046;-69
2022/07/27 08:20:35;;;;;;;2.83;1.40;;;29.20;58.40;;;;;;10892989;32;20054;-69
2022/07/27 08:27:01;;;;;;;3.33;1.77;;;29.50;57.50;;;;;;10908134;32;20046;-68
2022/07/27 08:33:04;;;;;;;3.70;1.87;;;29.80;57.20;;;;;;10908091;32;20392;-69
2022/07/27 08:39:07;;;;;;;6.55;2.15;;;30.00;56.60;;;;;;10894598;32;20030;-69
2022/07/27 08:45:11;;;;;;;5.62;2.47;;;30.10;56.30;;;;;;10907876;32;20298;-70
2022/07/27 08:51:35;;;;;;;4.20;2.28;;;30.00;56.30;;;;;;10903301;32;20373;-69
2022/07/27 08:57:37;;;;;;;3.45;1.87;;;29.90;56.30;;;;;;10905789;32;20053;-70
2022/07/27 09:03:40;;;;;;;1.92;1.48;;;29.80;56.40;;;;;;10906492;32;20435;-70
2022/07/27 09:09:45;;;;;;;3.42;1.87;;;30.00;56.30;;;;;;10893562;32;20418;-69
2022/07/27 09:15:59;;;;;;;2.62;1.87;;;30.20;55.70;;;;;;10905783;32;20054;-69
2022/07/27 09:22:01;;;;;;;3.78;1.85;;;30.30;55.30;;;;;;10888999;32;20324;-69
2022/07/27 09:28:04;;;;;;;4.90;2.47;;;30.40;55.00;;;;;;10906162;32;20057;-70
2022/07/27 09:34:06;;;;;;;3.08;1.77;;;30.60;54.50;;;;;;10903834;32;20343;-70
2022/07/27 09:40:11;;;;;;;2.30;1.42;;;30.60;54.20;;;;;;10904161;32;20024;-68
2022/07/27 09:46:13;;;;;;;3.28;2.17;;;30.80;53.50;;;;;;10892711;32;20058;-69
2022/07/27 09:52:29;;;;;;;4.82;3.05;;;30.90;53.20;;;;;;10892690;32;20421;-68
2022/07/27 09:58:47;;;;;;;3.58;2.42;;;31.10;53.00;;;;;;10904947;32;20065;-70
2022/07/27 10:04:49;;;;;;;3.45;1.95;;;31.20;52.40;;;;;;10904407;32;20049;-69
2022/07/27 10:10:51;;;;;;;5.37;2.17;;;31.40;52.60;;;;;;10902405;32;20031;-71
2022/07/27 10:16:54;;;;;;;5.90;2.45;;;31.40;53.10;;;;;;10904617;32;20046;-68
2022/07/27 10:22:59;;;;;;;4.37;2.40;;;31.30;52.50;;;;;;10904513;32;20011;-69
2022/07/27 10:29:03;;;;;;;3.17;1.75;;;31.40;52.40;;;;;;10904074;32;20313;-70
2022/07/27 10:35:33;;;;;;;2.85;1.83;;;31.50;52.70;;;;;;10902279;32;20058;-69
2022/07/27 10:41:40;;;;;;;3.53;2.08;;;31.80;51.70;;;;;;10899321;32;20051;-70
2022/07/27 10:47:50;;;;;;;5.90;2.90;;;31.90;51.80;;;;;;10889744;32;20027;-68
2022/07/27 10:53:53;;;;;;;6.18;3.15;;;32.00;50.90;;;;;;10866488;32;20043;-70
2022/07/27 10:59:55;;;;;;;2.55;1.83;;;32.00;50.90;;;;;;10866478;32;20086;-70
2022/07/27 11:06:04;;;;;;;3.08;1.83;;;32.20;49.60;;;;;;10853392;32;20046;-70
2022/07/27 11:12:20;;;;;;;4.62;1.90;;;32.60;49.10;;;;;;10853367;32;20041;-71
2022/07/27 11:18:57;;;;;;;2.00;1.60;;;33.00;48.70;;;;;;10852923;32;20316;-69
2022/07/27 11:25:00;;;;;;;7.15;2.40;;;33.40;46.40;;;;;;10716322;33;20148;-70
2022/07/27 11:31:04;;;;;;;2.92;1.83;;;33.50;46.50;;;;;;10312561;33;11859712;-71
2022/07/27 11:37:19;;;;;;;3.37;1.95;;;33.80;46.50;;;;;;10643785;33;20034;-69
2022/07/27 11:43:58;;;;;;;5.78;2.10;;;33.90;46.00;;;;;;10636338;33;20347;-70
2022/07/27 11:50:07;;;;;;;6.53;3.05;;;34.00;45.50;;;;;;10614893;33;20030;-70
2022/07/27 11:56:11;;;;;;;5.05;2.35;;;34.20;44.70;;;;;;10634545;33;20038;-70
2022/07/27 12:02:21;;;;;;;4.50;1.90;;;34.20;44.50;;;;;;10710374;33;20052;-69
2022/07/27 12:08:25;;;;;;;4.57;2.72;;;34.30;44.50;;;;;;10720820;33;20041;-70
2022/07/27 12:14:34;;;;;;;4.20;2.03;;;34.40;44.10;;;;;;10708496;33;20052;-71
2022/07/27 12:20:36;;;;;;;4.68;2.10;;;34.40;43.90;;;;;;10721314;33;20154;-71
2022/07/27 12:26:38;;;;;;;3.20;2.12;;;34.60;43.50;;;;;;10851284;32;20023;-70
2022/07/27 12:32:45;;;;;;;2.35;1.90;;;34.50;43.00;;;;;;10908880;27;20051;-71
2022/07/27 12:38:49;;;;;;;3.50;1.87;;;34.40;42.90;;;;;;10872261;32;20042;-70
2022/07/27 12:44:53;;;;;;;2.25;1.40;;;34.60;42.60;;;;;;10865913;32;20047;-69
2022/07/27 12:51:04;;;;;;;3.90;2.67;;;34.80;42.30;;;;;;10870031;32;20196;-71
2022/07/27 12:57:06;;;;;;;4.87;2.05;;;35.00;41.90;;;;;;10869984;32;20020;-70
2022/07/27 13:03:08;;;;;;;5.30;2.00;;;35.20;41.50;;;;;;10869616;32;20293;-71
2022/07/27 13:09:10;;;;;;;2.12;1.23;;;35.10;41.40;;;;;;10856245;32;20320;-70
2022/07/27 13:15:13;;;;;;;3.37;1.83;;;35.00;41.80;;;;;;10869028;32;20348;-71
2022/07/27 13:21:15;;;;;;;3.75;2.47;;;35.00;41.80;;;;;;10868884;32;20047;-71
2022/07/27 13:27:17;;;;;;;3.42;1.98;;;34.80;41.80;;;;;;10868924;32;20023;-69
2022/07/27 13:33:19;;;;;;;6.97;2.55;;;34.60;42.20;;;;;;10868576;32;20012;-71
2022/07/27 13:39:21;;;;;;;3.08;2.00;;;34.80;41.90;;;;;;10866726;32;20434;-71
2022/07/27 13:45:23;;;;;;;3.62;2.08;;;34.70;41.70;;;;;;10868153;32;20384;-70
2022/07/27 13:51:25;;;;;;;7.95;2.37;;;34.90;41.20;;;;;;10868102;32;20422;-70
2022/07/27 13:57:28;;;;;;;3.33;2.15;;;35.00;40.60;;;;;;10867631;32;20066;-71
2022/07/27 14:03:32;;;;;;;2.55;1.83;;;34.90;41.40;;;;;;10866265;32;20027;-71
2022/07/27 14:15:55;;;;;;;4.28;1.80;;;34.90;40.90;;;;;;10866736;32;20093;-71
2022/07/27 14:21:58;;;;;;;5.05;2.12;;;35.00;40.50;;;;;;10867010;32;20020;-70
2022/07/27 14:28:00;;;;;;;3.50;2.03;;;34.80;41.20;;;;;;10866502;32;20025;-70
2022/07/27 14:34:02;;;;;;;7.20;2.55;;;34.60;42.50;;;;;;10866195;32;20020;-71
2022/07/27 14:40:06;;;;;;;4.43;2.05;;;34.60;42.10;;;;;;10866261;32;20085;-71
2022/07/27 14:46:08;;;;;;;3.70;2.42;;;34.70;42.60;;;;;;10866477;32;20024;-71
2022/07/27 14:52:16;;;;;;;4.43;2.45;;;34.70;42.20;;;;;;10866548;32;20020;-70
2022/07/27 14:58:18;;;;;;;2.85;2.33;;;34.60;42.70;;;;;;10865910;32;20388;-71
2022/07/27 15:04:21;;;;;;;3.47;2.28;;;34.50;43.40;;;;;;10863438;32;20032;-70
2022/07/27 15:10:23;;;;;;;4.05;1.98;;;34.50;43.20;;;;;;10865577;32;20032;-70
2022/07/27 15:16:25;;;;;;;5.43;2.87;;;34.60;42.80;;;;;;10871053;32;20051;-71
2022/07/27 15:22:27;;;;;;;2.80;1.90;;;34.70;42.70;;;;;;10870871;32;20316;-70
2022/07/27 15:28:29;;;;;;;3.50;2.10;;;34.60;42.60;;;;;;10872570;32;20024;-71
2022/07/27 15:34:31;;;;;;;6.10;2.70;;;34.60;42.30;;;;;;10868496;32;20344;-70
2022/07/27 15:40:37;;;;;;;4.68;1.70;;;34.60;42.40;;;;;;10872547;32;20050;-72
2022/07/27 15:46:39;;;;;;;5.47;2.28;;;34.60;42.70;;;;;;10889218;32;20011;-73
2022/07/27 15:52:41;;;;;;;3.05;2.03;;;34.60;42.60;;;;;;10908828;32;20035;-72
2022/07/27 15:58:43;;;;;;;3.03;1.98;;;34.60;42.70;;;;;;10908991;32;20050;-73
2022/07/27 16:04:45;;;;;;;4.65;2.00;;;34.60;42.70;;;;;;10908940;32;20431;-73
2022/07/27 16:10:48;;;;;;;3.10;1.85;;;34.70;42.20;;;;;;10908454;32;20046;-73
2022/07/27 16:16:50;;;;;;;2.37;1.67;;;34.80;42.10;;;;;;10889598;32;20058;-73
2022/07/27 16:22:53;;;;;;;5.47;1.62;;;34.90;41.80;;;;;;10907769;32;20023;-72
2022/07/27 16:28:58;;;;;;;3.35;2.05;;;34.90;41.70;;;;;;10881638;32;20198;-73
2022/07/27 16:35:01;;;;;;;4.37;2.35;;;34.90;41.60;;;;;;10880408;32;20053;-72
2022/07/27 16:41:06;;;;;;;2.55;1.62;;;34.90;41.40;;;;;;10905197;32;20053;-73
2022/07/27 16:47:08;;;;;;;2.85;1.67;;;34.80;41.60;;;;;;10862998;32;20031;-72
2022/07/27 16:53:10;;;;;;;3.90;1.60;;;34.90;41.40;;;;;;10856473;32;20031;-73
2022/07/27 16:59:12;;;;;;;4.05;2.35;;;34.90;41.30;;;;;;10869643;32;20019;-73
2022/07/27 17:05:14;;;;;;;4.80;1.70;;;34.90;41.40;;;;;;10855726;32;20040;-72
2022/07/27 17:11:18;;;;;;;4.00;2.05;;;34.80;41.60;;;;;;10855986;32;20038;-73
2022/07/27 17:17:20;;;;;;;6.25;2.10;;;34.80;41.80;;;;;;10868110;32;20028;-72
2022/07/27 17:23:23;;;;;;;6.43;2.15;;;34.80;41.50;;;;;;10868601;32;20348;-72
2022/07/27 17:29:25;;;;;;;2.95;2.10;;;34.80;41.50;;;;;;10867563;32;20428;-72
2022/07/27 17:35:27;;;;;;;4.22;2.00;;;34.80;41.10;;;;;;10867591;32;20046;-73
2022/07/27 17:41:29;;;;;;;3.95;2.05;;;34.90;41.20;;;;;;10867400;32;20035;-73
2022/07/27 17:47:31;;;;;;;5.18;1.30;;;35.00;40.90;;;;;;10867218;32;20011;-73
2022/07/27 17:53:33;;;;;;;2.17;1.60;;;36.00;39.90;;;;;;10867435;32;20389;-73
2022/07/27 17:59:34;;;;;;;2.05;1.58;;;37.20;38.60;;;;;;10867002;32;20023;-73
2022/07/27 18:05:36;;;;;;;2.83;1.02;;;37.80;38.00;;;;;;10866661;32;20032;-73
2022/07/27 18:11:39;;;;;;;1.80;1.12;;;37.90;38.30;;;;;;10853547;32;20066;-73
2022/07/27 18:17:43;;;;;;;1.62;1.15;;;37.10;39.20;;;;;;10866821;32;20049;-73
2022/07/27 18:23:45;;;;;;;4.55;1.58;;;35.90;40.90;;;;;;10853947;32;20043;-73
2022/07/27 18:29:49;;;;;;;2.80;1.58;;;35.00;42.20;;;;;;10853905;32;20046;-73
2022/07/27 18:35:51;;;;;;;3.45;1.42;;;34.40;43.10;;;;;;10867039;32;20388;-73
2022/07/27 18:41:54;;;;;;;2.78;1.52;;;34.00;43.80;;;;;;10866395;32;20024;-73
2022/07/27 18:47:56;;;;;;;2.08;1.50;;;33.70;44.20;;;;;;10856073;32;20050;-73
2022/07/27 18:54:16;;;;;;;3.37;1.85;;;33.40;44.70;;;;;;10860819;32;20027;-72
2022/07/27 19:00:18;;;;;;;5.25;1.83;;;33.30;45.00;;;;;;10873984;32;20023;-72
2022/07/27 19:06:20;;;;;;;2.10;1.42;;;33.10;45.40;;;;;;10873560;32;20038;-72
2022/07/27 19:12:29;;;;;;;6.82;1.75;;;33.00;45.60;;;;;;10872085;32;20035;-72
2022/07/27 19:18:41;;;;;;;4.18;1.70;;;32.80;45.90;;;;;;10873344;32;20050;-71
2022/07/27 19:24:43;;;;;;;3.78;1.62;;;32.80;46.00;;;;;;10873162;32;20333;-71
2022/07/27 19:30:59;;;;;;;1.48;1.27;;;32.70;46.20;;;;;;10872954;32;20047;-71
2022/07/27 19:37:02;;;;;;;3.55;1.45;;;32.60;46.50;;;;;;10876318;32;20053;-71
2022/07/27 19:43:20;;;;;;;4.53;1.70;;;32.40;46.70;;;;;;10891947;32;20023;-71
2022/07/27 19:49:22;;;;;;;9.55;1.62;;;32.30;46.90;;;;;;10909545;32;20012;-71
2022/07/27 19:55:25;;;;;;;2.72;1.35;;;32.30;47.10;;;;;;10904821;32;20054;-72
2022/07/27 20:01:27;;;;;;;2.92;1.90;;;32.30;47.10;;;;;;10875351;32;20027;-72
2022/07/27 20:07:29;;;;;;;4.05;2.45;;;32.30;47.20;;;;;;10871786;32;20015;-72
2022/07/27 20:13:31;;;;;;;1.92;1.33;;;32.20;47.30;;;;;;10871044;32;20027;-71
2022/07/27 20:19:33;;;;;;;2.00;1.25;;;32.10;47.60;;;;;;10867192;32;20323;-71
2022/07/27 20:25:59;;;;;;;1.45;0.93;;;32.10;47.90;;;;;;10870353;32;20052;-72
2022/07/27 20:32:01;;;;;;;4.20;2.17;;;31.90;48.40;;;;;;10905744;27;20039;-71
2022/07/27 20:38:03;;;;;;;2.25;1.67;;;31.80;49.20;;;;;;10894792;32;20054;-71
2022/07/27 20:44:06;;;;;;;2.37;1.58;;;31.80;49.80;;;;;;10908068;32;20492;-70
2022/07/27 20:50:14;;;;;;;3.35;2.00;;;31.70;50.00;;;;;;10907368;32;20035;-70
2022/07/27 20:56:16;;;;;;;3.30;2.17;;;31.50;50.60;;;;;;10907740;32;20484;-71
2022/07/27 21:02:18;;;;;;;4.95;2.60;;;31.40;50.80;;;;;;10907327;32;20087;-72
2022/07/27 21:08:21;;;;;;;3.58;1.87;;;31.30;51.40;;;;;;10888696;32;20447;-71
2022/07/27 21:14:23;;;;;;;2.75;1.73;;;31.20;51.90;;;;;;10868740;32;20392;-71
2022/07/27 21:20:26;;;;;;;2.37;1.50;;;31.10;52.10;;;;;;10869016;32;20027;-71
2022/07/27 21:26:28;;;;;;;2.40;1.33;;;31.10;52.80;;;;;;10869178;32;20027;-71
2022/07/27 21:32:37;;;;;;;2.12;1.35;;;31.00;52.80;;;;;;10869044;32;20038;-71
2022/07/27 21:38:48;;;;;;;2.67;1.58;;;31.00;53.10;;;;;;10868655;32;20024;-71
2022/07/27 21:44:51;;;;;;;2.97;1.98;;;30.80;53.50;;;;;;10868517;32;20046;-71
2022/07/27 21:50:53;;;;;;;3.50;2.17;;;30.80;53.70;;;;;;10868299;32;20020;-71
2022/07/27 21:56:55;;;;;;;2.25;1.48;;;30.60;53.70;;;;;;10866442;32;20061;-71
2022/07/27 22:02:57;;;;;;;2.47;1.65;;;30.60;53.70;;;;;;10875595;32;20085;-72
2022/07/27 22:08:59;;;;;;;2.10;1.27;;;30.60;54.20;;;;;;10863223;32;20050;-72
2022/07/27 22:15:01;;;;;;;2.35;1.37;;;30.80;54.30;;;;;;10880918;32;20070;-70
2022/07/27 22:21:04;;;;;;;2.45;1.40;;;30.80;54.40;;;;;;10884089;32;20062;-72
2022/07/27 22:27:06;;;;;;;3.00;1.85;;;30.80;54.80;;;;;;10879075;32;20471;-72
2022/07/27 22:33:08;;;;;;;1.85;1.15;;;30.70;54.70;;;;;;10883206;32;20050;-72
2022/07/27 22:39:23;;;;;;;1.48;1.08;;;30.80;54.90;;;;;;10876048;32;20054;-72
2022/07/27 22:45:25;;;;;;;2.78;1.45;;;30.80;55.00;;;;;;10867043;32;20028;-71
2022/07/27 22:51:27;;;;;;;2.37;1.45;;;30.80;55.30;;;;;;10866298;32;20093;-72
2022/07/27 22:57:29;;;;;;;2.53;1.45;;;30.70;55.80;;;;;;10874932;32;20027;-72
2022/07/27 23:03:31;;;;;;;3.17;1.83;;;30.60;55.80;;;;;;10885471;32;20043;-72
2022/07/27 23:09:34;;;;;;;1.42;1.00;;;30.60;55.90;;;;;;10875784;32;20090;-71
2022/07/27 23:15:36;;;;;;;2.30;1.60;;;30.60;55.80;;;;;;10871531;32;20070;-72
2022/07/27 23:21:38;;;;;;;3.08;2.03;;;30.60;56.00;;;;;;10876196;32;20027;-71
2022/07/27 23:27:40;;;;;;;4.28;2.03;;;30.50;56.10;;;;;;10896704;32;20565;-72
2022/07/27 23:33:42;;;;;;;4.45;2.67;;;30.40;56.10;;;;;;10866942;32;20043;-71
2022/07/27 23:39:45;;;;;;;3.05;2.03;;;30.30;55.70;;;;;;10872942;32;20431;-70
2022/07/27 23:45:46;;;;;;;2.53;2.00;;;30.20;56.10;;;;;;10872805;32;20078;-72
2022/07/27 23:51:49;;;;;;;3.85;2.45;;;30.20;56.10;;;;;;10872379;32;20035;-72
2022/07/27 23:57:50;;;;;;;2.62;1.65;;;30.20;56.40;;;;;;10872185;32;20329;-72
